createdAt,value
2017-05-22T00:00:52.563Z,62.60
2017-05-22T00:03:21.753Z,63.00
2017-05-22T00:05:51.665Z,62.80
2017-05-22T00:08:20.872Z,62.40
2017-05-22T00:10:50.086Z,62.60
2017-05-22T00:13:19.280Z,63.00
2017-05-22T00:15:48.460Z,63.40
2017-05-22T00:18:17.674Z,63.60
2017-05-22T00:20:46.866Z,63.40
2017-05-22T00:23:16.057Z,63.10
2017-05-22T00:25:45.290Z,62.60
2017-05-22T00:28:14.494Z,63.20
2017-05-22T00:30:43.693Z,64.40
2017-05-22T00:33:12.922Z,63.80
2017-05-22T00:35:42.817Z,63.60
2017-05-22T00:38:12.025Z,64.00
2017-05-22T00:40:41.250Z,64.40
2017-05-22T00:43:10.483Z,63.80
2017-05-22T00:45:39.702Z,64.50
2017-05-22T00:48:09.040Z,64.70
2017-05-22T00:50:38.236Z,64.60
2017-05-22T00:53:07.478Z,64.40
2017-05-22T00:55:36.669Z,64.70
2017-05-22T00:58:05.839Z,64.70
2017-05-22T01:00:35.065Z,64.90
2017-05-22T01:03:04.247Z,65.60
2017-05-22T01:05:33.429Z,65.50
2017-05-22T01:08:02.675Z,65.80
2017-05-22T01:10:31.869Z,66.20
2017-05-22T01:13:01.071Z,66.20
2017-05-22T01:15:30.293Z,66.30
2017-05-22T01:17:59.476Z,66.70
2017-05-22T01:20:30.936Z,66.50
2017-05-22T01:23:00.132Z,65.90
2017-05-22T01:25:29.324Z,66.20
2017-05-22T01:27:58.532Z,67.00
2017-05-22T01:30:27.726Z,67.00
2017-05-22T01:32:56.976Z,67.00
2017-05-22T01:35:25.496Z,66.60
2017-05-22T01:37:54.343Z,67.70
2017-05-22T01:40:23.529Z,67.40
2017-05-22T01:42:52.738Z,67.60
2017-05-22T01:45:22.276Z,67.80
2017-05-22T01:47:51.456Z,68.10
2017-05-22T01:50:20.324Z,68.10
2017-05-22T01:52:49.512Z,68.50
2017-05-22T01:55:18.707Z,68.20
2017-05-22T01:57:47.946Z,68.30
2017-05-22T02:00:17.149Z,68.00
2017-05-22T02:02:46.358Z,68.40
2017-05-22T02:05:15.553Z,67.90
2017-05-22T02:07:44.760Z,68.00
2017-05-22T02:10:13.948Z,68.30
2017-05-22T02:12:43.192Z,68.40
2017-05-22T02:15:12.388Z,68.10
2017-05-22T02:17:41.560Z,68.50
2017-05-22T02:20:10.760Z,68.60
2017-05-22T02:22:39.956Z,68.50
2017-05-22T02:25:09.158Z,68.70
2017-05-22T02:27:38.385Z,68.60
2017-05-22T02:30:07.585Z,68.80
2017-05-22T02:32:36.793Z,69.00
2017-05-22T02:35:06.001Z,69.20
2017-05-22T02:37:35.193Z,69.20
2017-05-22T02:40:04.395Z,69.30
2017-05-22T02:42:34.093Z,69.50
2017-05-22T02:45:03.280Z,69.50
2017-05-22T02:47:32.465Z,69.30
2017-05-22T02:50:01.740Z,69.00
2017-05-22T02:52:30.932Z,68.60
2017-05-22T02:55:00.146Z,68.80
2017-05-22T02:57:29.433Z,69.00
2017-05-22T02:59:58.625Z,69.30
2017-05-22T03:02:27.923Z,69.10
2017-05-22T03:04:57.143Z,69.40
2017-05-22T03:07:26.426Z,69.30
2017-05-22T03:09:55.624Z,69.70
2017-05-22T03:12:24.834Z,69.90
2017-05-22T03:14:54.029Z,70.10
2017-05-22T03:17:23.219Z,69.80
2017-05-22T03:19:52.439Z,69.60
2017-05-22T03:22:21.623Z,69.30
2017-05-22T03:24:50.907Z,69.50
2017-05-22T03:27:20.122Z,69.40
2017-05-22T03:29:49.315Z,69.60
2017-05-22T03:32:18.491Z,69.30
2017-05-22T03:34:47.697Z,69.20
2017-05-22T03:37:16.876Z,69.50
2017-05-22T03:39:46.060Z,69.30
2017-05-22T03:42:15.268Z,69.50
2017-05-22T03:44:44.452Z,69.70
2017-05-22T03:47:13.632Z,69.50
2017-05-22T03:49:42.850Z,69.30
2017-05-22T03:52:12.027Z,69.50
2017-05-22T03:54:41.206Z,69.40
2017-05-22T03:57:10.462Z,69.50
2017-05-22T03:59:39.642Z,69.10
2017-05-22T04:02:08.845Z,69.10
2017-05-22T04:04:38.069Z,69.20
2017-05-22T04:07:07.254Z,69.00
2017-05-22T04:09:36.441Z,69.20
2017-05-22T04:12:06.339Z,68.90
2017-05-22T04:14:36.200Z,68.50
2017-05-22T04:17:05.400Z,68.50
2017-05-22T04:19:34.613Z,68.80
2017-05-22T04:22:03.805Z,69.20
2017-05-22T04:24:33.013Z,69.10
2017-05-22T04:27:02.205Z,69.30
2017-05-22T04:29:31.434Z,69.40
2017-05-22T04:32:00.714Z,69.90
2017-05-22T04:34:29.905Z,70.30
2017-05-22T04:36:59.096Z,70.10
2017-05-22T04:39:28.317Z,69.70
2017-05-22T04:41:58.185Z,69.80
2017-05-22T04:44:27.388Z,69.40
2017-05-22T04:46:56.588Z,69.50
2017-05-22T04:49:25.775Z,69.20
2017-05-22T04:51:54.993Z,69.60
2017-05-22T04:54:24.168Z,70.00
2017-05-22T04:56:53.362Z,70.00
2017-05-22T04:59:22.569Z,70.40
2017-05-22T05:01:51.774Z,70.90
2017-05-22T05:04:20.977Z,70.70
2017-05-22T05:06:50.184Z,70.80
2017-05-22T05:09:19.432Z,70.80
2017-05-22T05:11:48.616Z,70.60
2017-05-22T05:14:17.836Z,70.00
2017-05-22T05:16:47.011Z,69.70
2017-05-22T05:19:16.214Z,69.30
2017-05-22T05:21:45.452Z,69.50
2017-05-22T05:24:14.637Z,69.50
2017-05-22T05:26:43.833Z,68.80
2017-05-22T05:29:13.057Z,69.40
2017-05-22T05:31:42.281Z,69.10
2017-05-22T05:34:11.484Z,69.40
2017-05-22T05:36:40.692Z,69.50
2017-05-22T05:39:09.888Z,69.20
2017-05-22T05:41:39.063Z,69.30
2017-05-22T05:44:08.314Z,70.60
2017-05-22T05:46:38.731Z,68.60
2017-05-22T05:49:07.946Z,68.50
2017-05-22T05:51:37.158Z,68.50
2017-05-22T05:54:06.355Z,68.50
2017-05-22T05:56:35.585Z,68.10
2017-05-22T05:59:04.803Z,68.20
2017-05-22T06:01:33.977Z,67.50
2017-05-22T06:04:03.181Z,68.10
2017-05-22T06:06:32.389Z,68.50
2017-05-22T06:09:01.561Z,66.80
2017-05-22T06:11:30.760Z,66.90
2017-05-22T06:13:59.944Z,66.10
2017-05-22T06:16:29.172Z,67.00
2017-05-22T06:18:58.373Z,66.70
2017-05-22T06:21:27.725Z,65.50
2017-05-22T06:23:56.997Z,66.60
2017-05-22T06:26:26.719Z,65.80
2017-05-22T06:28:56.302Z,64.80
2017-05-22T06:31:25.588Z,64.30
2017-05-22T06:33:54.786Z,64.10
2017-05-22T06:36:24.518Z,62.00
2017-05-22T06:38:53.969Z,62.60
2017-05-22T06:41:23.194Z,63.10
2017-05-22T06:43:52.718Z,63.40
2017-05-22T06:46:21.983Z,63.00
2017-05-22T06:48:51.241Z,63.50
2017-05-22T06:51:20.424Z,63.50
2017-05-22T06:53:49.613Z,62.80
2017-05-22T06:56:18.894Z,62.40
2017-05-22T06:58:48.069Z,62.40
2017-05-22T07:01:18.221Z,62.20
2017-05-22T07:03:47.420Z,62.10
2017-05-22T07:06:16.682Z,61.90
2017-05-22T07:08:46.951Z,61.20
2017-05-22T07:11:16.164Z,61.00
2017-05-22T07:13:46.103Z,60.70
2017-05-22T07:16:15.351Z,60.20
2017-05-22T07:18:44.528Z,60.30
2017-05-22T07:21:13.769Z,61.10
2017-05-22T07:23:43.142Z,60.20
2017-05-22T07:26:12.331Z,59.70
2017-05-22T07:28:41.820Z,60.20
2017-05-22T07:31:11.039Z,60.60
2017-05-22T07:33:40.338Z,59.90
2017-05-22T07:36:09.561Z,59.90
2017-05-22T07:38:38.814Z,60.20
2017-05-22T07:41:08.374Z,59.70
2017-05-22T07:43:37.888Z,60.40
2017-05-22T07:46:07.140Z,60.40
2017-05-22T07:48:36.692Z,59.20
2017-05-22T07:51:05.979Z,59.00
2017-05-22T07:53:35.482Z,59.20
2017-05-22T07:56:04.674Z,58.20
2017-05-22T07:58:33.873Z,58.40
2017-05-22T08:01:03.539Z,58.10
2017-05-22T08:03:32.724Z,58.10
2017-05-22T08:06:01.979Z,58.60
2017-05-22T08:08:31.173Z,58.60
2017-05-22T08:11:00.373Z,58.00
2017-05-22T08:13:29.604Z,58.40
2017-05-22T08:15:58.888Z,57.50
2017-05-22T08:18:28.101Z,58.60
2017-05-22T08:20:57.308Z,56.80
2017-05-22T08:23:26.498Z,56.10
2017-05-22T08:25:55.695Z,55.90
2017-05-22T08:28:24.932Z,56.80
2017-05-22T08:30:54.140Z,56.40
2017-05-22T08:33:23.319Z,55.20
2017-05-22T08:35:52.541Z,56.50
2017-05-22T08:38:21.745Z,56.50
2017-05-22T08:40:51.633Z,53.90
2017-05-22T08:43:20.843Z,53.90
2017-05-22T08:45:50.098Z,54.50
2017-05-22T08:48:19.300Z,53.00
2017-05-22T08:50:48.519Z,53.10
2017-05-22T08:53:17.735Z,52.30
2017-05-22T08:55:46.933Z,53.10
2017-05-22T08:58:16.111Z,53.30
2017-05-22T09:00:45.343Z,52.00
2017-05-22T09:03:14.577Z,51.30
2017-05-22T09:05:43.777Z,50.90
2017-05-22T09:08:13.173Z,50.70
2017-05-22T09:10:42.398Z,51.30
2017-05-22T09:13:11.673Z,51.10
2017-05-22T09:15:40.892Z,50.60
2017-05-22T09:18:10.072Z,49.30
2017-05-22T09:20:39.285Z,48.20
2017-05-22T09:23:08.505Z,49.10
2017-05-22T09:25:37.691Z,49.10
2017-05-22T09:28:06.879Z,47.70
2017-05-22T09:30:36.093Z,49.30
2017-05-22T09:33:05.409Z,47.40
2017-05-22T09:35:34.623Z,47.50
2017-05-22T09:38:03.833Z,46.90
2017-05-22T09:40:33.036Z,45.90
2017-05-22T09:43:02.228Z,45.60
2017-05-22T09:45:31.440Z,46.90
2017-05-22T09:48:00.645Z,46.80
2017-05-22T09:50:29.842Z,47.10
2017-05-22T09:52:58.714Z,45.90
2017-05-22T09:55:28.604Z,45.70
2017-05-22T09:57:57.823Z,46.70
2017-05-22T10:00:27.025Z,46.10
2017-05-22T10:02:56.239Z,45.30
2017-05-22T10:05:27.695Z,45.10
2017-05-22T10:07:57.109Z,44.50
2017-05-22T10:10:26.321Z,44.90
2017-05-22T10:12:55.590Z,45.70
2017-05-22T10:15:24.843Z,45.70
2017-05-22T10:17:54.769Z,45.90
2017-05-22T10:20:23.956Z,45.00
2017-05-22T10:22:53.869Z,45.50
2017-05-22T10:25:23.752Z,46.40
2017-05-22T10:27:52.958Z,45.60
2017-05-22T10:30:22.421Z,45.70
2017-05-22T10:32:51.620Z,44.40
2017-05-22T10:35:21.515Z,44.40
2017-05-22T10:37:50.906Z,42.70
2017-05-22T10:40:20.809Z,42.10
2017-05-22T10:42:50.061Z,43.90
2017-05-22T10:45:19.253Z,41.30
2017-05-22T10:47:48.625Z,41.90
2017-05-22T10:50:17.821Z,42.00
2017-05-22T10:52:47.012Z,42.50
2017-05-22T10:55:16.415Z,43.00
2017-05-22T10:57:45.618Z,42.20
2017-05-22T11:00:14.475Z,42.10
2017-05-22T11:02:43.914Z,40.30
2017-05-22T11:05:13.096Z,41.60
2017-05-22T11:07:42.293Z,40.50
2017-05-22T11:10:11.702Z,38.80
2017-05-22T11:12:40.893Z,40.40
2017-05-22T11:15:09.783Z,40.50
2017-05-22T11:17:39.197Z,38.50
2017-05-22T11:20:08.415Z,39.20
2017-05-22T11:22:37.616Z,41.40
2017-05-22T11:25:06.863Z,42.00
2017-05-22T11:27:36.090Z,39.40
2017-05-22T11:30:05.282Z,39.70
2017-05-22T11:32:34.515Z,39.80
2017-05-22T11:35:03.713Z,41.10
2017-05-22T11:37:32.924Z,40.80
2017-05-22T11:40:02.445Z,40.70
2017-05-22T11:42:31.665Z,40.70
2017-05-22T11:45:01.129Z,40.70
2017-05-22T11:47:30.828Z,40.00
2017-05-22T11:50:00.328Z,40.70
2017-05-22T11:52:29.803Z,39.20
2017-05-22T11:54:59.016Z,40.00
2017-05-22T11:57:28.285Z,40.50
2017-05-22T11:59:57.606Z,40.80
2017-05-22T12:02:26.775Z,38.90
2017-05-22T12:04:55.986Z,40.00
2017-05-22T12:07:25.217Z,39.00
2017-05-22T12:09:54.414Z,38.10
2017-05-22T12:12:23.621Z,38.70
2017-05-22T12:14:53.042Z,40.10
2017-05-22T12:17:21.477Z,40.10
2017-05-22T12:19:51.199Z,39.00
2017-05-22T12:22:21.475Z,38.10
2017-05-22T12:24:50.681Z,38.60
2017-05-22T12:27:19.897Z,39.00
2017-05-22T12:29:50.598Z,37.90
2017-05-22T12:32:19.921Z,38.90
2017-05-22T12:34:49.475Z,39.30
2017-05-22T12:37:18.782Z,40.20
2017-05-22T12:39:48.001Z,40.60
2017-05-22T12:42:17.833Z,40.70
2017-05-22T12:44:50.899Z,39.20
2017-05-22T12:47:21.104Z,39.70
2017-05-22T12:49:50.973Z,40.70
2017-05-22T12:52:20.197Z,40.80
2017-05-22T12:54:49.390Z,40.20
2017-05-22T12:57:18.590Z,41.40
2017-05-22T12:59:47.813Z,42.30
2017-05-22T13:02:17.013Z,41.70
2017-05-22T13:04:46.213Z,41.00
2017-05-22T13:07:15.465Z,40.90
2017-05-22T13:09:44.724Z,40.60
2017-05-22T13:12:13.916Z,40.30
2017-05-22T13:14:43.152Z,40.30
2017-05-22T13:17:12.422Z,40.10
2017-05-22T13:19:41.845Z,40.20
2017-05-22T13:22:11.277Z,40.20
2017-05-22T13:24:40.511Z,40.10
2017-05-22T13:27:10.459Z,40.60
2017-05-22T13:29:39.751Z,41.30
2017-05-22T13:32:09.061Z,41.60
2017-05-22T13:34:38.489Z,40.80
2017-05-22T13:37:07.930Z,41.00
2017-05-22T13:39:37.154Z,40.60
2017-05-22T13:42:06.439Z,40.10
2017-05-22T13:44:35.785Z,40.40
2017-05-22T13:47:05.012Z,40.30
2017-05-22T13:49:34.943Z,40.90
2017-05-22T13:52:04.397Z,39.80
2017-05-22T13:54:33.820Z,40.70
2017-05-22T13:57:03.249Z,39.80
2017-05-22T13:59:32.441Z,40.30
2017-05-22T14:02:01.677Z,40.60
2017-05-22T14:04:31.009Z,40.60
2017-05-22T14:07:00.937Z,40.50
2017-05-22T14:09:30.930Z,40.70
2017-05-22T14:12:02.066Z,40.60
2017-05-22T14:14:31.450Z,40.20
2017-05-22T14:17:01.119Z,40.90
2017-05-22T14:19:30.944Z,40.20
2017-05-22T14:22:00.341Z,40.40
2017-05-22T14:24:29.640Z,40.10
2017-05-22T14:26:59.292Z,39.30
2017-05-22T14:29:28.507Z,39.60
2017-05-22T14:31:58.032Z,39.70
2017-05-22T14:34:27.242Z,39.50
2017-05-22T14:36:56.565Z,40.20
2017-05-22T14:39:25.975Z,40.00
2017-05-22T14:41:55.212Z,40.50
2017-05-22T14:44:24.479Z,38.70
2017-05-22T14:46:53.656Z,38.60
2017-05-22T14:49:22.909Z,40.20
2017-05-22T14:51:52.122Z,39.80
2017-05-22T14:54:21.327Z,40.60
2017-05-22T14:56:50.556Z,39.20
2017-05-22T14:59:19.744Z,38.80
2017-05-22T15:01:48.945Z,39.70
2017-05-22T15:04:18.175Z,39.90
2017-05-22T15:06:47.357Z,39.50
2017-05-22T15:09:16.541Z,39.00
2017-05-22T15:11:45.757Z,39.60
2017-05-22T15:14:14.945Z,40.20
2017-05-22T15:16:44.143Z,40.00
2017-05-22T15:19:13.401Z,39.90
2017-05-22T15:21:42.599Z,39.90
2017-05-22T15:24:11.794Z,39.50
2017-05-22T15:26:41.011Z,40.40
2017-05-22T15:29:10.216Z,40.20
2017-05-22T15:31:39.413Z,41.00
2017-05-22T15:34:08.626Z,41.30
2017-05-22T15:36:37.825Z,40.60
2017-05-22T15:39:07.015Z,41.00
2017-05-22T15:41:36.252Z,41.30
2017-05-22T15:44:05.444Z,40.90
2017-05-22T15:46:34.628Z,41.20
2017-05-22T15:49:03.873Z,41.40
2017-05-22T15:51:33.074Z,41.20
2017-05-22T15:54:02.262Z,38.90
2017-05-22T15:56:31.991Z,40.20
2017-05-22T15:59:01.213Z,40.10
2017-05-22T16:01:30.399Z,41.00
2017-05-22T16:03:59.616Z,39.80
2017-05-22T16:06:29.495Z,39.90
2017-05-22T16:08:58.692Z,40.80
2017-05-22T16:11:27.901Z,40.60
2017-05-22T16:13:57.097Z,40.10
2017-05-22T16:16:26.309Z,39.60
2017-05-22T16:18:56.181Z,38.40
2017-05-22T16:21:25.410Z,39.40
2017-05-22T16:23:54.599Z,38.80
2017-05-22T16:26:23.791Z,40.20
2017-05-22T16:28:53.010Z,40.20
2017-05-22T16:31:22.193Z,40.00
2017-05-22T16:33:51.397Z,40.40
2017-05-22T16:36:20.645Z,40.50
2017-05-22T16:38:49.859Z,40.50
2017-05-22T16:41:19.045Z,40.80
2017-05-22T16:43:48.293Z,40.60
2017-05-22T16:46:18.224Z,40.60
2017-05-22T16:48:47.394Z,40.20
2017-05-22T16:51:16.620Z,39.70
2017-05-22T16:53:45.807Z,40.40
2017-05-22T16:56:15.016Z,40.20
2017-05-22T16:58:44.204Z,41.30
2017-05-22T17:01:13.397Z,40.70
2017-05-22T17:03:42.623Z,41.20
2017-05-22T17:06:11.816Z,41.00
2017-05-22T17:08:41.002Z,41.70
2017-05-22T17:11:10.245Z,42.70
2017-05-22T17:13:39.417Z,41.60
2017-05-22T17:16:08.617Z,43.10
2017-05-22T17:18:37.846Z,42.90
2017-05-22T17:21:07.040Z,41.30
2017-05-22T17:23:36.212Z,42.70
2017-05-22T17:26:05.452Z,42.10
2017-05-22T17:28:34.643Z,42.50
2017-05-22T17:31:03.897Z,41.50
2017-05-22T17:33:33.121Z,41.90
2017-05-22T17:36:02.313Z,42.30
2017-05-22T17:38:31.501Z,41.90
2017-05-22T17:41:00.720Z,41.30
2017-05-22T17:43:30.697Z,42.20
2017-05-22T17:45:59.930Z,41.90
2017-05-22T17:48:29.125Z,43.20
2017-05-22T17:50:58.318Z,42.70
2017-05-22T17:53:27.575Z,42.50
2017-05-22T17:55:56.770Z,42.40
2017-05-22T17:58:26.068Z,41.80
2017-05-22T18:00:57.725Z,41.70
2017-05-22T18:03:27.129Z,41.80
2017-05-22T18:05:56.335Z,41.90
2017-05-22T18:08:25.529Z,42.10
2017-05-22T18:10:54.741Z,42.60
2017-05-22T18:13:23.941Z,43.10
2017-05-22T18:15:53.812Z,43.00
2017-05-22T18:18:23.012Z,43.30
2017-05-22T18:20:52.212Z,44.10
2017-05-22T18:23:21.405Z,43.70
2017-05-22T18:25:50.616Z,43.80
2017-05-22T18:28:19.812Z,44.60
2017-05-22T18:30:49.005Z,43.40
2017-05-22T18:33:18.218Z,44.50
2017-05-22T18:35:48.094Z,44.70
2017-05-22T18:38:17.320Z,44.90
2017-05-22T18:40:46.513Z,44.50
2017-05-22T18:43:15.725Z,44.30
2017-05-22T18:45:44.973Z,44.40
2017-05-22T18:48:14.163Z,43.50
2017-05-22T18:50:43.373Z,44.10
2017-05-22T18:53:12.594Z,43.90
2017-05-22T18:55:41.815Z,44.30
2017-05-22T18:58:11.001Z,44.40
2017-05-22T19:00:40.230Z,44.70
2017-05-22T19:03:09.403Z,44.40
2017-05-22T19:05:38.610Z,44.80
2017-05-22T19:08:07.833Z,45.30
2017-05-22T19:10:37.025Z,44.80
2017-05-22T19:13:06.247Z,45.20
2017-05-22T19:15:35.481Z,45.10
2017-05-22T19:18:04.685Z,44.90
2017-05-22T19:20:33.878Z,45.10
2017-05-22T19:23:03.372Z,45.10
2017-05-22T19:25:33.142Z,45.50
2017-05-22T19:28:02.321Z,45.30
2017-05-22T19:30:31.500Z,45.90
2017-05-22T19:33:00.677Z,45.90
2017-05-22T19:35:29.907Z,45.90
2017-05-22T19:37:59.105Z,46.50
2017-05-22T19:40:28.301Z,46.90
2017-05-22T19:42:58.225Z,47.30
2017-05-22T19:45:27.428Z,46.90
2017-05-22T19:47:56.625Z,47.20
2017-05-22T19:50:25.867Z,47.40
2017-05-22T19:52:55.082Z,47.40
2017-05-22T19:55:24.278Z,47.30
2017-05-22T19:57:53.512Z,47.20
2017-05-22T20:00:22.734Z,47.00
2017-05-22T20:02:51.934Z,47.30
2017-05-22T20:05:21.165Z,47.10
2017-05-22T20:07:50.829Z,47.10
2017-05-22T20:10:20.032Z,48.20
2017-05-22T20:12:49.250Z,47.80
2017-05-22T20:15:18.492Z,48.10
2017-05-22T20:17:48.452Z,48.00
2017-05-22T20:20:19.618Z,48.20
2017-05-22T20:22:48.837Z,49.10
2017-05-22T20:25:18.028Z,49.30
2017-05-22T20:27:47.551Z,49.40
2017-05-22T20:30:16.744Z,49.20
2017-05-22T20:32:45.958Z,49.20
2017-05-22T20:35:15.170Z,48.80
2017-05-22T20:37:44.423Z,49.10
2017-05-22T20:40:14.169Z,48.90
2017-05-22T20:42:43.397Z,48.80
2017-05-22T20:45:12.585Z,48.90
2017-05-22T20:47:41.789Z,49.10
2017-05-22T20:50:10.989Z,49.30
2017-05-22T20:52:40.540Z,48.60
2017-05-22T20:55:09.705Z,49.00
2017-05-22T20:57:38.919Z,49.10
2017-05-22T21:00:08.682Z,49.30
2017-05-22T21:02:39.488Z,48.70
2017-05-22T21:05:08.709Z,49.40
2017-05-22T21:07:37.902Z,49.10
2017-05-22T21:10:07.097Z,49.30
2017-05-22T21:12:36.995Z,49.70
2017-05-22T21:15:06.301Z,50.00
2017-05-22T21:17:35.528Z,50.10
2017-05-22T21:20:04.757Z,49.80
2017-05-22T21:22:33.982Z,49.90
2017-05-22T21:25:04.145Z,50.20
2017-05-22T21:27:33.349Z,49.80
2017-05-22T21:30:02.556Z,49.80
2017-05-22T21:32:31.762Z,50.20
2017-05-22T21:35:01.919Z,50.40
2017-05-22T21:37:31.135Z,50.50
2017-05-22T21:40:01.334Z,51.10
2017-05-22T21:42:32.782Z,50.40
2017-05-22T21:45:02.000Z,50.90
2017-05-22T21:47:31.209Z,50.90
2017-05-22T21:50:00.383Z,50.60
2017-05-22T21:52:29.605Z,51.20
2017-05-22T21:54:58.817Z,50.90
2017-05-22T21:57:28.730Z,51.10
2017-05-22T21:59:57.780Z,51.10
2017-05-22T22:02:26.989Z,51.40
2017-05-22T22:04:56.233Z,51.70
2017-05-22T22:07:28.737Z,52.00
2017-05-22T22:09:57.969Z,51.90
2017-05-22T22:12:27.168Z,51.80
2017-05-22T22:14:56.412Z,52.50
2017-05-22T22:17:25.676Z,52.40
2017-05-22T22:19:55.612Z,53.00
2017-05-22T22:22:24.830Z,53.10
2017-05-22T22:24:54.050Z,53.00
2017-05-22T22:27:23.241Z,53.60
2017-05-22T22:29:52.333Z,53.60
2017-05-22T22:32:21.937Z,53.90
2017-05-22T22:34:51.154Z,54.30
2017-05-22T22:37:21.432Z,54.10
2017-05-22T22:39:50.660Z,53.80
2017-05-22T22:42:19.856Z,54.10
2017-05-22T22:44:49.476Z,54.50
2017-05-22T22:47:19.484Z,54.40
2017-05-22T22:49:48.692Z,54.60
2017-05-22T22:52:17.906Z,54.70
2017-05-22T22:54:47.108Z,55.00
2017-05-22T22:57:16.225Z,54.60
2017-05-22T22:59:45.419Z,55.00
2017-05-22T23:02:14.629Z,54.90
2017-05-22T23:04:43.909Z,54.90
2017-05-22T23:07:13.117Z,55.20
2017-05-22T23:09:42.318Z,55.20
2017-05-22T23:12:11.529Z,55.30
2017-05-22T23:14:40.720Z,55.40
2017-05-22T23:17:10.093Z,54.90
2017-05-22T23:19:39.304Z,55.60
2017-05-22T23:22:08.515Z,55.00
2017-05-22T23:24:37.705Z,55.20
2017-05-22T23:27:06.932Z,55.20
2017-05-22T23:29:36.229Z,55.10
2017-05-22T23:32:05.402Z,55.20
2017-05-22T23:34:34.613Z,55.20
2017-05-22T23:37:03.796Z,55.00
2017-05-22T23:39:32.992Z,55.50
2017-05-22T23:42:02.226Z,55.00
2017-05-22T23:44:31.493Z,55.80
2017-05-22T23:47:00.683Z,55.80
2017-05-22T23:49:30.655Z,56.50
2017-05-22T23:52:00.946Z,57.00
2017-05-22T23:54:30.204Z,56.30
2017-05-22T23:56:59.751Z,56.10
2017-05-22T23:59:28.954Z,56.30
